sensor_id;sensor_type;location;lat;lon;timestamp;P1;durP1;ratioP1;P2;durP2;ratioP2
27796;SDS011;15177;50.844;4.412;2023-06-10T00:02:08;13.05;;;7.55;;
27796;SDS011;15177;50.844;4.412;2023-06-10T00:04:35;9.00;;;7.15;;
27796;SDS011;15177;50.844;4.412;2023-06-10T00:07:05;14.13;;;8.18;;
27796;SDS011;15177;50.844;4.412;2023-06-10T00:09:34;13.82;;;7.47;;
27796;SDS011;15177;50.844;4.412;2023-06-10T00:12:02;13.32;;;8.10;;
27796;SDS011;15177;50.844;4.412;2023-06-10T00:14:29;15.52;;;8.00;;
27796;SDS011;15177;50.844;4.412;2023-06-10T00:16:54;8.00;;;7.20;;
27796;SDS011;15177;50.844;4.412;2023-06-10T00:19:23;11.43;;;8.23;;
27796;SDS011;15177;50.844;4.412;2023-06-10T00:21:56;8.85;;;7.40;;
27796;SDS011;15177;50.844;4.412;2023-06-10T00:24:22;8.30;;;7.07;;
27796;SDS011;15177;50.844;4.412;2023-06-10T00:26:48;9.13;;;7.07;;
27796;SDS011;15177;50.844;4.412;2023-06-10T00:29:14;14.48;;;8.13;;
27796;SDS011;15177;50.844;4.412;2023-06-10T00:31:40;12.63;;;7.75;;
27796;SDS011;15177;50.844;4.412;2023-06-10T00:34:07;13.40;;;7.65;;
27796;SDS011;15177;50.844;4.412;2023-06-10T00:36:34;12.32;;;8.05;;
27796;SDS011;15177;50.844;4.412;2023-06-10T00:39:00;9.57;;;7.63;;
27796;SDS011;15177;50.844;4.412;2023-06-10T00:41:27;18.70;;;8.73;;
27796;SDS011;15177;50.844;4.412;2023-06-10T00:43:53;11.85;;;8.15;;
27796;SDS011;15177;50.844;4.412;2023-06-10T00:46:18;12.13;;;8.77;;
27796;SDS011;15177;50.844;4.412;2023-06-10T00:48:46;12.68;;;8.60;;
27796;SDS011;15177;50.844;4.412;2023-06-10T00:51:13;11.75;;;8.05;;
27796;SDS011;15177;50.844;4.412;2023-06-10T00:53:39;12.70;;;8.20;;
27796;SDS011;15177;50.844;4.412;2023-06-10T00:56:07;11.13;;;7.97;;
27796;SDS011;15177;50.844;4.412;2023-06-10T00:58:35;13.43;;;8.75;;
27796;SDS011;15177;50.844;4.412;2023-06-10T01:01:01;13.95;;;8.27;;
27796;SDS011;15177;50.844;4.412;2023-06-10T01:03:27;9.38;;;7.63;;
27796;SDS011;15177;50.844;4.412;2023-06-10T01:06:01;11.07;;;7.72;;
27796;SDS011;15177;50.844;4.412;2023-06-10T01:11:34;12.07;;;8.10;;
27796;SDS011;15177;50.844;4.412;2023-06-10T01:14:06;10.70;;;8.38;;
27796;SDS011;15177;50.844;4.412;2023-06-10T01:16:34;13.43;;;8.60;;
27796;SDS011;15177;50.844;4.412;2023-06-10T01:19:01;12.20;;;7.60;;
27796;SDS011;15177;50.844;4.412;2023-06-10T01:21:28;11.98;;;8.48;;
27796;SDS011;15177;50.844;4.412;2023-06-10T01:23:54;10.77;;;7.65;;
27796;SDS011;15177;50.844;4.412;2023-06-10T01:26:22;13.50;;;8.85;;
27796;SDS011;15177;50.844;4.412;2023-06-10T01:29:12;12.07;;;7.72;;
27796;SDS011;15177;50.844;4.412;2023-06-10T01:31:58;9.25;;;7.68;;
27796;SDS011;15177;50.844;4.412;2023-06-10T01:34:32;11.90;;;8.13;;
27796;SDS011;15177;50.844;4.412;2023-06-10T01:36:58;10.98;;;8.18;;
27796;SDS011;15177;50.844;4.412;2023-06-10T01:39:25;13.35;;;8.65;;
27796;SDS011;15177;50.844;4.412;2023-06-10T01:41:53;8.80;;;7.30;;
27796;SDS011;15177;50.844;4.412;2023-06-10T01:44:21;12.18;;;7.80;;
27796;SDS011;15177;50.844;4.412;2023-06-10T01:46:47;9.10;;;8.15;;
27796;SDS011;15177;50.844;4.412;2023-06-10T01:49:13;14.88;;;7.80;;
27796;SDS011;15177;50.844;4.412;2023-06-10T01:51:40;11.82;;;8.15;;
27796;SDS011;15177;50.844;4.412;2023-06-10T01:54:06;10.93;;;7.95;;
27796;SDS011;15177;50.844;4.412;2023-06-10T01:56:32;11.00;;;8.10;;
27796;SDS011;15177;50.844;4.412;2023-06-10T01:58:59;10.10;;;8.40;;
27796;SDS011;15177;50.844;4.412;2023-06-10T02:01:28;10.90;;;8.30;;
27796;SDS011;15177;50.844;4.412;2023-06-10T02:03:55;10.25;;;8.55;;
27796;SDS011;15177;50.844;4.412;2023-06-10T02:06:21;16.52;;;7.72;;
27796;SDS011;15177;50.844;4.412;2023-06-10T02:08:46;12.60;;;8.25;;
27796;SDS011;15177;50.844;4.412;2023-06-10T02:11:12;13.48;;;8.73;;
27796;SDS011;15177;50.844;4.412;2023-06-10T02:13:38;10.65;;;8.65;;
27796;SDS011;15177;50.844;4.412;2023-06-10T02:16:04;10.18;;;7.85;;
27796;SDS011;15177;50.844;4.412;2023-06-10T02:18:30;14.15;;;8.60;;
27796;SDS011;15177;50.844;4.412;2023-06-10T02:20:57;11.25;;;8.35;;
27796;SDS011;15177;50.844;4.412;2023-06-10T02:23:22;12.88;;;8.68;;
27796;SDS011;15177;50.844;4.412;2023-06-10T02:25:49;17.20;;;9.02;;
27796;SDS011;15177;50.844;4.412;2023-06-10T02:28:15;12.80;;;8.65;;
27796;SDS011;15177;50.844;4.412;2023-06-10T02:30:41;11.93;;;9.30;;
27796;SDS011;15177;50.844;4.412;2023-06-10T02:33:07;14.57;;;8.45;;
27796;SDS011;15177;50.844;4.412;2023-06-10T02:35:40;10.48;;;8.20;;
27796;SDS011;15177;50.844;4.412;2023-06-10T02:38:05;17.15;;;8.88;;
27796;SDS011;15177;50.844;4.412;2023-06-10T02:40:32;14.18;;;8.52;;
27796;SDS011;15177;50.844;4.412;2023-06-10T02:42:58;13.93;;;8.50;;
27796;SDS011;15177;50.844;4.412;2023-06-10T02:45:23;12.30;;;8.95;;
27796;SDS011;15177;50.844;4.412;2023-06-10T02:47:49;11.43;;;9.30;;
27796;SDS011;15177;50.844;4.412;2023-06-10T02:50:15;12.63;;;8.65;;
27796;SDS011;15177;50.844;4.412;2023-06-10T02:52:41;12.80;;;9.18;;
27796;SDS011;15177;50.844;4.412;2023-06-10T02:55:07;14.70;;;9.32;;
27796;SDS011;15177;50.844;4.412;2023-06-10T02:57:32;18.48;;;9.18;;
27796;SDS011;15177;50.844;4.412;2023-06-10T02:59:58;10.60;;;8.20;;
27796;SDS011;15177;50.844;4.412;2023-06-10T03:02:24;12.13;;;8.73;;
27796;SDS011;15177;50.844;4.412;2023-06-10T03:04:57;14.07;;;9.77;;
27796;SDS011;15177;50.844;4.412;2023-06-10T03:07:23;15.93;;;10.18;;
27796;SDS011;15177;50.844;4.412;2023-06-10T03:09:49;13.65;;;8.65;;
27796;SDS011;15177;50.844;4.412;2023-06-10T03:12:15;13.98;;;8.80;;
27796;SDS011;15177;50.844;4.412;2023-06-10T03:14:41;11.65;;;9.77;;
27796;SDS011;15177;50.844;4.412;2023-06-10T03:17:07;11.13;;;9.10;;
27796;SDS011;15177;50.844;4.412;2023-06-10T03:19:33;9.38;;;8.18;;
27796;SDS011;15177;50.844;4.412;2023-06-10T03:22:09;11.98;;;8.52;;
27796;SDS011;15177;50.844;4.412;2023-06-10T03:24:36;16.40;;;9.55;;
27796;SDS011;15177;50.844;4.412;2023-06-10T03:27:05;11.65;;;8.90;;
27796;SDS011;15177;50.844;4.412;2023-06-10T03:29:37;11.90;;;9.50;;
27796;SDS011;15177;50.844;4.412;2023-06-10T03:32:05;11.98;;;9.02;;
27796;SDS011;15177;50.844;4.412;2023-06-10T03:34:31;13.45;;;10.18;;
27796;SDS011;15177;50.844;4.412;2023-06-10T03:36:57;14.07;;;9.15;;
27796;SDS011;15177;50.844;4.412;2023-06-10T03:39:23;11.32;;;8.98;;
27796;SDS011;15177;50.844;4.412;2023-06-10T03:41:49;11.80;;;9.30;;
27796;SDS011;15177;50.844;4.412;2023-06-10T03:44:16;11.85;;;9.38;;
27796;SDS011;15177;50.844;4.412;2023-06-10T03:46:45;19.05;;;10.00;;
27796;SDS011;15177;50.844;4.412;2023-06-10T03:49:12;16.35;;;10.10;;
27796;SDS011;15177;50.844;4.412;2023-06-10T03:51:38;12.20;;;9.50;;
27796;SDS011;15177;50.844;4.412;2023-06-10T03:54:04;12.88;;;9.48;;
27796;SDS011;15177;50.844;4.412;2023-06-10T03:56:29;12.93;;;9.60;;
27796;SDS011;15177;50.844;4.412;2023-06-10T03:58:57;12.20;;;8.80;;
27796;SDS011;15177;50.844;4.412;2023-06-10T04:01:23;10.48;;;9.20;;
27796;SDS011;15177;50.844;4.412;2023-06-10T04:03:49;13.75;;;9.95;;
27796;SDS011;15177;50.844;4.412;2023-06-10T04:06:17;11.88;;;8.18;;
27796;SDS011;15177;50.844;4.412;2023-06-10T04:08:43;11.57;;;9.82;;
27796;SDS011;15177;50.844;4.412;2023-06-10T04:11:10;14.43;;;9.55;;
27796;SDS011;15177;50.844;4.412;2023-06-10T04:13:36;14.25;;;10.02;;
27796;SDS011;15177;50.844;4.412;2023-06-10T04:16:03;12.73;;;9.88;;
27796;SDS011;15177;50.844;4.412;2023-06-10T04:18:28;16.17;;;10.88;;
27796;SDS011;15177;50.844;4.412;2023-06-10T04:20:54;14.40;;;9.55;;
27796;SDS011;15177;50.844;4.412;2023-06-10T04:23:20;12.98;;;9.13;;
27796;SDS011;15177;50.844;4.412;2023-06-10T04:25:46;17.67;;;9.50;;
27796;SDS011;15177;50.844;4.412;2023-06-10T04:28:12;17.90;;;9.55;;
27796;SDS011;15177;50.844;4.412;2023-06-10T04:30:38;14.77;;;9.75;;
27796;SDS011;15177;50.844;4.412;2023-06-10T04:33:04;13.30;;;9.65;;
27796;SDS011;15177;50.844;4.412;2023-06-10T04:35:31;15.18;;;10.77;;
27796;SDS011;15177;50.844;4.412;2023-06-10T04:37:57;12.18;;;9.65;;
27796;SDS011;15177;50.844;4.412;2023-06-10T04:40:23;23.17;;;10.05;;
27796;SDS011;15177;50.844;4.412;2023-06-10T04:42:48;13.40;;;10.32;;
27796;SDS011;15177;50.844;4.412;2023-06-10T04:45:14;14.55;;;9.55;;
27796;SDS011;15177;50.844;4.412;2023-06-10T04:47:43;14.48;;;10.35;;
27796;SDS011;15177;50.844;4.412;2023-06-10T04:50:09;15.75;;;10.15;;
27796;SDS011;15177;50.844;4.412;2023-06-10T04:52:34;13.57;;;10.23;;
27796;SDS011;15177;50.844;4.412;2023-06-10T04:55:01;15.80;;;10.27;;
27796;SDS011;15177;50.844;4.412;2023-06-10T04:57:27;13.60;;;10.20;;
27796;SDS011;15177;50.844;4.412;2023-06-10T04:59:53;15.88;;;11.05;;
27796;SDS011;15177;50.844;4.412;2023-06-10T05:02:19;13.05;;;10.00;;
27796;SDS011;15177;50.844;4.412;2023-06-10T05:04:46;14.02;;;9.32;;
27796;SDS011;15177;50.844;4.412;2023-06-10T05:07:11;18.80;;;9.90;;
27796;SDS011;15177;50.844;4.412;2023-06-10T05:09:37;12.13;;;9.90;;
27796;SDS011;15177;50.844;4.412;2023-06-10T05:12:03;12.82;;;9.38;;
27796;SDS011;15177;50.844;4.412;2023-06-10T05:14:31;13.00;;;9.00;;
27796;SDS011;15177;50.844;4.412;2023-06-10T05:16:57;14.20;;;9.98;;
27796;SDS011;15177;50.844;4.412;2023-06-10T05:19:23;17.83;;;10.07;;
27796;SDS011;15177;50.844;4.412;2023-06-10T05:21:48;11.75;;;9.55;;
27796;SDS011;15177;50.844;4.412;2023-06-10T05:24:14;15.88;;;10.25;;
27796;SDS011;15177;50.844;4.412;2023-06-10T05:26:40;15.35;;;10.63;;
27796;SDS011;15177;50.844;4.412;2023-06-10T05:29:06;13.88;;;9.90;;
27796;SDS011;15177;50.844;4.412;2023-06-10T05:31:33;14.43;;;9.40;;
27796;SDS011;15177;50.844;4.412;2023-06-10T05:33:58;11.60;;;10.02;;
27796;SDS011;15177;50.844;4.412;2023-06-10T05:36:24;14.77;;;9.02;;
27796;SDS011;15177;50.844;4.412;2023-06-10T05:38:52;11.93;;;9.15;;
27796;SDS011;15177;50.844;4.412;2023-06-10T05:41:21;13.00;;;9.25;;
27796;SDS011;15177;50.844;4.412;2023-06-10T05:43:50;11.90;;;9.25;;
27796;SDS011;15177;50.844;4.412;2023-06-10T05:46:16;14.80;;;9.82;;
27796;SDS011;15177;50.844;4.412;2023-06-10T05:48:41;15.05;;;9.25;;
27796;SDS011;15177;50.844;4.412;2023-06-10T05:51:08;19.60;;;9.90;;
27796;SDS011;15177;50.844;4.412;2023-06-10T05:53:35;11.63;;;9.40;;
27796;SDS011;15177;50.844;4.412;2023-06-10T05:56:01;12.70;;;8.85;;
27796;SDS011;15177;50.844;4.412;2023-06-10T05:58:26;12.02;;;8.60;;
27796;SDS011;15177;50.844;4.412;2023-06-10T06:00:52;9.85;;;8.27;;
27796;SDS011;15177;50.844;4.412;2023-06-10T06:03:18;12.45;;;8.75;;
27796;SDS011;15177;50.844;4.412;2023-06-10T06:05:44;16.08;;;8.65;;
27796;SDS011;15177;50.844;4.412;2023-06-10T06:08:11;12.10;;;8.98;;
27796;SDS011;15177;50.844;4.412;2023-06-10T06:10:38;13.13;;;8.20;;
27796;SDS011;15177;50.844;4.412;2023-06-10T06:13:04;15.55;;;8.80;;
27796;SDS011;15177;50.844;4.412;2023-06-10T06:15:30;13.25;;;8.35;;
27796;SDS011;15177;50.844;4.412;2023-06-10T06:17:56;12.20;;;8.90;;
27796;SDS011;15177;50.844;4.412;2023-06-10T06:20:22;14.38;;;8.90;;
27796;SDS011;15177;50.844;4.412;2023-06-10T06:22:48;15.80;;;8.00;;
27796;SDS011;15177;50.844;4.412;2023-06-10T06:25:13;10.52;;;7.93;;
27796;SDS011;15177;50.844;4.412;2023-06-10T06:27:40;11.80;;;8.32;;
27796;SDS011;15177;50.844;4.412;2023-06-10T06:30:05;14.27;;;8.70;;
27796;SDS011;15177;50.844;4.412;2023-06-10T06:32:31;14.23;;;8.80;;
27796;SDS011;15177;50.844;4.412;2023-06-10T06:34:57;12.10;;;7.68;;
27796;SDS011;15177;50.844;4.412;2023-06-10T06:37:23;14.82;;;8.60;;
27796;SDS011;15177;50.844;4.412;2023-06-10T06:39:50;11.35;;;8.43;;
27796;SDS011;15177;50.844;4.412;2023-06-10T06:42:16;11.80;;;8.15;;
27796;SDS011;15177;50.844;4.412;2023-06-10T06:44:42;13.20;;;7.82;;
27796;SDS011;15177;50.844;4.412;2023-06-10T06:47:08;10.73;;;8.60;;
27796;SDS011;15177;50.844;4.412;2023-06-10T06:49:34;11.82;;;8.27;;
27796;SDS011;15177;50.844;4.412;2023-06-10T06:51:59;12.63;;;8.07;;
27796;SDS011;15177;50.844;4.412;2023-06-10T06:54:26;9.45;;;8.07;;
27796;SDS011;15177;50.844;4.412;2023-06-10T06:56:54;8.93;;;7.13;;
27796;SDS011;15177;50.844;4.412;2023-06-10T06:59:21;9.13;;;7.50;;
27796;SDS011;15177;50.844;4.412;2023-06-10T07:01:46;13.63;;;7.75;;
27796;SDS011;15177;50.844;4.412;2023-06-10T07:04:14;9.70;;;7.75;;
27796;SDS011;15177;50.844;4.412;2023-06-10T07:06:41;11.70;;;7.32;;
27796;SDS011;15177;50.844;4.412;2023-06-10T07:09:10;8.77;;;7.80;;
27796;SDS011;15177;50.844;4.412;2023-06-10T07:11:35;8.02;;;7.22;;
27796;SDS011;15177;50.844;4.412;2023-06-10T07:14:01;11.52;;;7.63;;
27796;SDS011;15177;50.844;4.412;2023-06-10T07:16:28;10.05;;;7.30;;
27796;SDS011;15177;50.844;4.412;2023-06-10T07:18:54;7.82;;;7.00;;
27796;SDS011;15177;50.844;4.412;2023-06-10T07:21:19;8.85;;;7.28;;
27796;SDS011;15177;50.844;4.412;2023-06-10T07:23:45;11.20;;;7.55;;
27796;SDS011;15177;50.844;4.412;2023-06-10T07:26:12;12.63;;;7.10;;
27796;SDS011;15177;50.844;4.412;2023-06-10T07:28:41;13.77;;;7.72;;
27796;SDS011;15177;50.844;4.412;2023-06-10T07:31:07;10.25;;;7.15;;
27796;SDS011;15177;50.844;4.412;2023-06-10T07:33:37;10.50;;;7.32;;
27796;SDS011;15177;50.844;4.412;2023-06-10T07:36:04;10.32;;;6.70;;
27796;SDS011;15177;50.844;4.412;2023-06-10T07:38:30;8.30;;;6.90;;
27796;SDS011;15177;50.844;4.412;2023-06-10T07:40:56;10.02;;;6.95;;
27796;SDS011;15177;50.844;4.412;2023-06-10T07:43:22;11.38;;;6.72;;
27796;SDS011;15177;50.844;4.412;2023-06-10T07:45:48;10.35;;;7.20;;
27796;SDS011;15177;50.844;4.412;2023-06-10T07:48:14;8.65;;;6.68;;
27796;SDS011;15177;50.844;4.412;2023-06-10T07:50:40;12.52;;;6.70;;
27796;SDS011;15177;50.844;4.412;2023-06-10T07:53:06;16.58;;;7.40;;
27796;SDS011;15177;50.844;4.412;2023-06-10T07:55:31;10.57;;;7.20;;
27796;SDS011;15177;50.844;4.412;2023-06-10T07:57:57;10.50;;;7.15;;
27796;SDS011;15177;50.844;4.412;2023-06-10T08:00:22;13.10;;;6.53;;
27796;SDS011;15177;50.844;4.412;2023-06-10T08:02:48;11.13;;;6.80;;
27796;SDS011;15177;50.844;4.412;2023-06-10T08:05:15;7.68;;;6.43;;
27796;SDS011;15177;50.844;4.412;2023-06-10T08:07:42;9.75;;;7.00;;
27796;SDS011;15177;50.844;4.412;2023-06-10T08:10:08;9.98;;;7.55;;
27796;SDS011;15177;50.844;4.412;2023-06-10T08:12:34;9.13;;;7.40;;
27796;SDS011;15177;50.844;4.412;2023-06-10T08:15:00;10.20;;;6.80;;
27796;SDS011;15177;50.844;4.412;2023-06-10T08:17:26;7.88;;;6.95;;
27796;SDS011;15177;50.844;4.412;2023-06-10T08:19:52;10.73;;;6.93;;
27796;SDS011;15177;50.844;4.412;2023-06-10T08:22:18;10.80;;;7.65;;
27796;SDS011;15177;50.844;4.412;2023-06-10T08:24:43;7.60;;;5.88;;
27796;SDS011;15177;50.844;4.412;2023-06-10T08:27:09;8.15;;;6.57;;
27796;SDS011;15177;50.844;4.412;2023-06-10T08:29:35;9.27;;;6.45;;
27796;SDS011;15177;50.844;4.412;2023-06-10T08:32:01;13.18;;;6.22;;
27796;SDS011;15177;50.844;4.412;2023-06-10T08:34:27;9.05;;;5.68;;
27796;SDS011;15177;50.844;4.412;2023-06-10T08:36:52;7.55;;;6.03;;
27796;SDS011;15177;50.844;4.412;2023-06-10T08:39:20;8.70;;;5.93;;
27796;SDS011;15177;50.844;4.412;2023-06-10T08:41:49;9.48;;;5.88;;
27796;SDS011;15177;50.844;4.412;2023-06-10T08:44:28;11.68;;;6.43;;
27796;SDS011;15177;50.844;4.412;2023-06-10T08:46:58;9.57;;;5.80;;
27796;SDS011;15177;50.844;4.412;2023-06-10T08:49:25;10.55;;;6.00;;
27796;SDS011;15177;50.844;4.412;2023-06-10T08:51:55;12.82;;;6.90;;
27796;SDS011;15177;50.844;4.412;2023-06-10T08:54:25;9.05;;;6.43;;
27796;SDS011;15177;50.844;4.412;2023-06-10T08:56:55;8.18;;;6.07;;
27796;SDS011;15177;50.844;4.412;2023-06-10T08:59:22;8.05;;;5.88;;
27796;SDS011;15177;50.844;4.412;2023-06-10T09:01:50;9.90;;;6.22;;
27796;SDS011;15177;50.844;4.412;2023-06-10T09:04:17;7.60;;;6.15;;
27796;SDS011;15177;50.844;4.412;2023-06-10T09:06:44;14.13;;;6.68;;
27796;SDS011;15177;50.844;4.412;2023-06-10T09:09:11;6.43;;;5.80;;
27796;SDS011;15177;50.844;4.412;2023-06-10T09:11:38;6.78;;;5.75;;
27796;SDS011;15177;50.844;4.412;2023-06-10T09:14:07;8.65;;;5.90;;
27796;SDS011;15177;50.844;4.412;2023-06-10T09:16:32;6.05;;;5.10;;
27796;SDS011;15177;50.844;4.412;2023-06-10T09:18:58;6.55;;;5.95;;
27796;SDS011;15177;50.844;4.412;2023-06-10T09:21:24;7.07;;;5.57;;
27796;SDS011;15177;50.844;4.412;2023-06-10T09:23:50;6.38;;;5.40;;
27796;SDS011;15177;50.844;4.412;2023-06-10T09:26:16;6.60;;;5.38;;
27796;SDS011;15177;50.844;4.412;2023-06-10T09:28:48;7.13;;;5.05;;
27796;SDS011;15177;50.844;4.412;2023-06-10T09:31:15;8.50;;;5.45;;
27796;SDS011;15177;50.844;4.412;2023-06-10T09:33:44;6.20;;;5.05;;
27796;SDS011;15177;50.844;4.412;2023-06-10T09:36:10;10.27;;;5.55;;
27796;SDS011;15177;50.844;4.412;2023-06-10T09:38:36;7.07;;;5.93;;
27796;SDS011;15177;50.844;4.412;2023-06-10T09:41:02;8.27;;;5.72;;
27796;SDS011;15177;50.844;4.412;2023-06-10T09:46:23;6.20;;;4.90;;
27796;SDS011;15177;50.844;4.412;2023-06-10T09:48:49;6.38;;;5.43;;
27796;SDS011;15177;50.844;4.412;2023-06-10T09:51:14;8.25;;;5.78;;
27796;SDS011;15177;50.844;4.412;2023-06-10T09:53:42;7.50;;;6.60;;
27796;SDS011;15177;50.844;4.412;2023-06-10T09:56:07;10.43;;;6.05;;
27796;SDS011;15177;50.844;4.412;2023-06-10T09:58:42;8.63;;;5.88;;
27796;SDS011;15177;50.844;4.412;2023-06-10T10:01:11;9.27;;;5.97;;
27796;SDS011;15177;50.844;4.412;2023-06-10T10:03:43;10.18;;;6.32;;
27796;SDS011;15177;50.844;4.412;2023-06-10T10:06:13;8.23;;;6.13;;
27796;SDS011;15177;50.844;4.412;2023-06-10T10:08:41;7.55;;;5.25;;
27796;SDS011;15177;50.844;4.412;2023-06-10T10:11:08;12.80;;;6.75;;
27796;SDS011;15177;50.844;4.412;2023-06-10T10:13:34;8.43;;;6.00;;
27796;SDS011;15177;50.844;4.412;2023-06-10T10:16:01;8.65;;;5.90;;
27796;SDS011;15177;50.844;4.412;2023-06-10T10:18:35;8.38;;;5.80;;
27796;SDS011;15177;50.844;4.412;2023-06-10T10:21:08;8.73;;;5.68;;
27796;SDS011;15177;50.844;4.412;2023-06-10T10:23:39;9.30;;;6.07;;
27796;SDS011;15177;50.844;4.412;2023-06-10T10:26:17;9.15;;;5.97;;
27796;SDS011;15177;50.844;4.412;2023-06-10T10:28:48;6.00;;;5.32;;
27796;SDS011;15177;50.844;4.412;2023-06-10T10:31:27;6.43;;;5.28;;
27796;SDS011;15177;50.844;4.412;2023-06-10T10:33:58;7.85;;;5.63;;
27796;SDS011;15177;50.844;4.412;2023-06-10T10:36:25;6.40;;;5.45;;
27796;SDS011;15177;50.844;4.412;2023-06-10T10:38:51;8.25;;;5.53;;
27796;SDS011;15177;50.844;4.412;2023-06-10T10:41:18;6.05;;;5.45;;
27796;SDS011;15177;50.844;4.412;2023-06-10T10:43:45;7.32;;;5.68;;
27796;SDS011;15177;50.844;4.412;2023-06-10T10:46:12;7.85;;;5.93;;
27796;SDS011;15177;50.844;4.412;2023-06-10T10:48:45;5.60;;;5.07;;
27796;SDS011;15177;50.844;4.412;2023-06-10T10:51:17;6.25;;;4.90;;
27796;SDS011;15177;50.844;4.412;2023-06-10T10:53:42;9.63;;;5.57;;
27796;SDS011;15177;50.844;4.412;2023-06-10T10:56:16;6.32;;;4.85;;
27796;SDS011;15177;50.844;4.412;2023-06-10T10:59:05;7.38;;;5.07;;
27796;SDS011;15177;50.844;4.412;2023-06-10T11:01:41;6.90;;;5.15;;
27796;SDS011;15177;50.844;4.412;2023-06-10T11:04:10;8.05;;;5.15;;
27796;SDS011;15177;50.844;4.412;2023-06-10T11:06:36;10.38;;;6.43;;
27796;SDS011;15177;50.844;4.412;2023-06-10T11:09:24;8.25;;;5.75;;
27796;SDS011;15177;50.844;4.412;2023-06-10T11:11:56;5.07;;;4.60;;
27796;SDS011;15177;50.844;4.412;2023-06-10T11:14:29;7.85;;;5.53;;
27796;SDS011;15177;50.844;4.412;2023-06-10T11:16:58;8.57;;;5.63;;
27796;SDS011;15177;50.844;4.412;2023-06-10T11:19:37;6.50;;;4.97;;
27796;SDS011;15177;50.844;4.412;2023-06-10T11:22:15;9.10;;;5.05;;
27796;SDS011;15177;50.844;4.412;2023-06-10T11:24:44;5.30;;;4.80;;
27796;SDS011;15177;50.844;4.412;2023-06-10T11:27:20;10.00;;;4.85;;
27796;SDS011;15177;50.844;4.412;2023-06-10T11:32:33;9.52;;;5.75;;
27796;SDS011;15177;50.844;4.412;2023-06-10T11:35:00;7.72;;;5.38;;
27796;SDS011;15177;50.844;4.412;2023-06-10T11:37:31;7.72;;;5.60;;
27796;SDS011;15177;50.844;4.412;2023-06-10T11:39:58;9.85;;;5.85;;
27796;SDS011;15177;50.844;4.412;2023-06-10T11:42:24;7.55;;;6.10;;
27796;SDS011;15177;50.844;4.412;2023-06-10T11:44:53;12.93;;;5.95;;
27796;SDS011;15177;50.844;4.412;2023-06-10T11:47:20;9.85;;;6.18;;
27796;SDS011;15177;50.844;4.412;2023-06-10T11:49:55;6.63;;;5.75;;
27796;SDS011;15177;50.844;4.412;2023-06-10T11:52:32;7.38;;;6.40;;
27796;SDS011;15177;50.844;4.412;2023-06-10T11:55:02;7.13;;;5.43;;
27796;SDS011;15177;50.844;4.412;2023-06-10T11:57:30;9.68;;;6.55;;
27796;SDS011;15177;50.844;4.412;2023-06-10T12:00:03;8.73;;;5.65;;
27796;SDS011;15177;50.844;4.412;2023-06-10T12:02:33;8.85;;;5.35;;
27796;SDS011;15177;50.844;4.412;2023-06-10T12:05:14;12.02;;;6.43;;
27796;SDS011;15177;50.844;4.412;2023-06-10T12:07:40;9.13;;;6.22;;
27796;SDS011;15177;50.844;4.412;2023-06-10T12:10:06;12.07;;;6.75;;
27796;SDS011;15177;50.844;4.412;2023-06-10T12:12:34;9.05;;;7.13;;
27796;SDS011;15177;50.844;4.412;2023-06-10T12:15:02;6.70;;;6.03;;
27796;SDS011;15177;50.844;4.412;2023-06-10T12:19:59;10.02;;;6.55;;
27796;SDS011;15177;50.844;4.412;2023-06-10T12:22:25;8.45;;;5.97;;
27796;SDS011;15177;50.844;4.412;2023-06-10T12:24:58;7.82;;;6.32;;
27796;SDS011;15177;50.844;4.412;2023-06-10T12:27:26;8.50;;;6.35;;
27796;SDS011;15177;50.844;4.412;2023-06-10T12:29:55;11.05;;;6.53;;
27796;SDS011;15177;50.844;4.412;2023-06-10T12:32:43;12.63;;;5.97;;
27796;SDS011;15177;50.844;4.412;2023-06-10T12:35:10;11.52;;;6.28;;
27796;SDS011;15177;50.844;4.412;2023-06-10T12:37:38;9.20;;;6.30;;
27796;SDS011;15177;50.844;4.412;2023-06-10T12:40:07;10.70;;;6.60;;
27796;SDS011;15177;50.844;4.412;2023-06-10T12:42:36;11.25;;;6.38;;
27796;SDS011;15177;50.844;4.412;2023-06-10T12:45:04;10.88;;;6.07;;
27796;SDS011;15177;50.844;4.412;2023-06-10T12:47:34;8.07;;;6.30;;
27796;SDS011;15177;50.844;4.412;2023-06-10T12:50:01;10.85;;;6.53;;
27796;SDS011;15177;50.844;4.412;2023-06-10T12:52:29;11.98;;;6.35;;
27796;SDS011;15177;50.844;4.412;2023-06-10T12:54:55;9.65;;;6.18;;
27796;SDS011;15177;50.844;4.412;2023-06-10T12:57:22;7.88;;;6.20;;
27796;SDS011;15177;50.844;4.412;2023-06-10T12:59:48;12.15;;;6.47;;
27796;SDS011;15177;50.844;4.412;2023-06-10T13:02:22;7.88;;;6.18;;
27796;SDS011;15177;50.844;4.412;2023-06-10T13:04:49;7.90;;;6.32;;
27796;SDS011;15177;50.844;4.412;2023-06-10T13:07:17;9.00;;;6.70;;
27796;SDS011;15177;50.844;4.412;2023-06-10T13:09:43;9.35;;;6.68;;
27796;SDS011;15177;50.844;4.412;2023-06-10T13:12:09;12.57;;;6.38;;
27796;SDS011;15177;50.844;4.412;2023-06-10T13:14:37;7.45;;;6.20;;
27796;SDS011;15177;50.844;4.412;2023-06-10T13:17:03;8.30;;;5.75;;
27796;SDS011;15177;50.844;4.412;2023-06-10T13:19:31;11.88;;;5.97;;
27796;SDS011;15177;50.844;4.412;2023-06-10T13:21:58;10.13;;;5.80;;
27796;SDS011;15177;50.844;4.412;2023-06-10T13:24:24;8.40;;;6.70;;
27796;SDS011;15177;50.844;4.412;2023-06-10T13:26:49;15.98;;;7.38;;
27796;SDS011;15177;50.844;4.412;2023-06-10T13:29:15;9.45;;;6.53;;
27796;SDS011;15177;50.844;4.412;2023-06-10T13:31:42;13.82;;;7.07;;
27796;SDS011;15177;50.844;4.412;2023-06-10T13:34:07;13.20;;;7.25;;
27796;SDS011;15177;50.844;4.412;2023-06-10T13:36:33;10.90;;;6.05;;
27796;SDS011;15177;50.844;4.412;2023-06-10T13:39:00;10.50;;;6.82;;
27796;SDS011;15177;50.844;4.412;2023-06-10T13:41:27;7.63;;;6.00;;
27796;SDS011;15177;50.844;4.412;2023-06-10T13:43:53;10.35;;;5.93;;
27796;SDS011;15177;50.844;4.412;2023-06-10T13:46:20;9.10;;;6.53;;
27796;SDS011;15177;50.844;4.412;2023-06-10T13:48:48;7.97;;;7.18;;
27796;SDS011;15177;50.844;4.412;2023-06-10T13:51:15;9.82;;;6.55;;
27796;SDS011;15177;50.844;4.412;2023-06-10T13:53:41;9.77;;;6.88;;
27796;SDS011;15177;50.844;4.412;2023-06-10T13:56:07;9.05;;;6.38;;
27796;SDS011;15177;50.844;4.412;2023-06-10T13:58:33;9.07;;;6.55;;
27796;SDS011;15177;50.844;4.412;2023-06-10T14:01:03;12.77;;;6.55;;
27796;SDS011;15177;50.844;4.412;2023-06-10T14:03:30;11.25;;;5.72;;
27796;SDS011;15177;50.844;4.412;2023-06-10T14:05:55;13.80;;;6.68;;
27796;SDS011;15177;50.844;4.412;2023-06-10T14:08:21;10.60;;;6.68;;
27796;SDS011;15177;50.844;4.412;2023-06-10T14:10:48;16.98;;;6.20;;
27796;SDS011;15177;50.844;4.412;2023-06-10T14:13:16;8.95;;;6.57;;
27796;SDS011;15177;50.844;4.412;2023-06-10T14:15:42;8.93;;;6.47;;
27796;SDS011;15177;50.844;4.412;2023-06-10T14:18:08;7.50;;;5.70;;
27796;SDS011;15177;50.844;4.412;2023-06-10T14:20:33;9.98;;;7.18;;
27796;SDS011;15177;50.844;4.412;2023-06-10T14:22:59;8.45;;;6.32;;
27796;SDS011;15177;50.844;4.412;2023-06-10T14:25:25;8.05;;;6.32;;
27796;SDS011;15177;50.844;4.412;2023-06-10T14:27:51;7.70;;;6.82;;
27796;SDS011;15177;50.844;4.412;2023-06-10T14:30:17;11.38;;;6.93;;
27796;SDS011;15177;50.844;4.412;2023-06-10T14:32:43;9.35;;;6.50;;
27796;SDS011;15177;50.844;4.412;2023-06-10T14:35:08;9.98;;;6.63;;
27796;SDS011;15177;50.844;4.412;2023-06-10T14:37:36;13.63;;;6.43;;
27796;SDS011;15177;50.844;4.412;2023-06-10T14:40:02;9.55;;;6.50;;
27796;SDS011;15177;50.844;4.412;2023-06-10T14:42:29;9.15;;;6.57;;
27796;SDS011;15177;50.844;4.412;2023-06-10T14:44:57;9.75;;;6.22;;
27796;SDS011;15177;50.844;4.412;2023-06-10T14:47:22;11.45;;;6.35;;
27796;SDS011;15177;50.844;4.412;2023-06-10T14:49:48;12.07;;;7.32;;
27796;SDS011;15177;50.844;4.412;2023-06-10T14:52:14;7.95;;;6.22;;